Estes Park, CO

5:44 AM MDT on August 30, 2014 (GMT -0600)
Erie Municipal Airport | Change Station
CLOSE
Current Station
Airport
Location: Erie,
Elevation: 5128 ft
Nearby Weather Stations

Elev 5128 ft 40.01 °N, 105.05 °W | Updated 9 minutes ago

Clear
Clear
48 °F
Feels Like 48 °F
N
0
Wind Variable Wind from North

Today
High -- | Low -- °F
--% Chance of Precip.
Yesterday
High -- | Low -- °F
Precip. -- in
6:27 AM 7:37 PM
Waxing Crescent, 21% visible
Pressure 30.08 in
Visibility 10.0 miles
Clouds Clear
Dew Point 45 °F
Humidity 90%
Rainfall 0.00 in
Snow Depth 0 in , 1 in , 0 in
UV 0 out of 12
Pollen 10.50 out of 12
Air Quality Not available.
Flu Activity Not available.
METAR KEIK 301135Z AUTO 00000KT 10SM CLR 09/07 A3008 RMK AO2 T00860071

More Conditions Fewer Conditions

Pressure 30.08 in
Visibility 10.0 miles
Clouds Clear
Dew Point 45 °F
Humidity 90%
Rainfall 0.00 in
Snow Depth 0 in , 1 in , 0 in
UV 0 out of 12
Pollen 10.50 out of 12
Air Quality Not available.
Flu Activity Not available.
METAR KEIK 301135Z AUTO 00000KT 10SM CLR 09/07 A3008 RMK AO2 T00860071

More Conditions Fewer Conditions

10-Day Weather Forecast

Almanac

Astronomy

Aug. 30, 2014 Rise Set
Actual Time 6:27 AM MDT 7:37 PM MDT
Civil Twilight 5:59 AM MDT 8:05 PM MDT
Nautical Twilight 5:26 AM MDT 8:38 PM MDT
Astronomical Twilight 4:51 AM MDT 9:13 PM MDT
Moon 11:18 AM MDT 10:12 PM MDT
Length of Visible Light 14h 05m
Length of Day
13h 09m
Tomorrow will be 2m 33s shorter.
Waxing Crescent, 21% of the Moon is Illuminated
Today
Waxing Crescent
Sep 2
First Quarter
Sep 8
Full
Sep 15
Last Quarter
Sep 24
New

Today's Extremes

State Highs State Lows

Community

WunderPhotos

Upload Photos

1,748,492 photos uploaded!

WunderBlogs® & News

By Dr. Jeff Masters
Director of Meteorology, Weather Underground
By Kari Strenfel
Meteorologist, Weather Underground
By Christopher C. Burt
Weather Historian, Weather Underground
August 30, 2014
August 30, 2014
August 30, 2014

Nearby

Air Quality

  Air Quality AQ Index Pollutant
Yesterday Good
OZONE
Yesterday Good
PM10
Saturday Good
OZONE
Saturday Good
PM2.5

Snow Depth

Station Depth Elevation
Copeland Lake 0 in 8600 ft
Wild Basin 1 in 9560 ft
Willow Park 0 in 10700 ft
Lake Irene 1 in 10700 ft
Phantom Valley 0 in 9030 ft

Earthquake Activity

City Distance Mag. Time & Date
No recent earthquake activity has been reported nearby.
Minimum magnitude displayed is 2.5.

Coastal Water Temperatures

Place Temperature
No Stations Reporting

Nearby Weather Stations